Time;durP1;ratioP1;P1;durP2;ratioP2;P2;SDS_P1;SDS_P2;PMS_P1;PMS_P2;Temp;Humidity;BMP_temperature;BMP_pressure;BME280_temperature;BME280_humidity;BME280_pressure;Samples;Min_cycle;Max_cycle;Signal;HPM_P1;HPM_P2
2022/01/11 00:00:37;;;;;;;55.17;28.35;;;-0.10;99.90;;;;;;5106404;27;20126;-60
2022/01/11 00:03:05;;;;;;;53.17;28.50;;;-0.10;99.90;;;;;;5112178;27;20445;-58
2022/01/11 00:05:46;;;;;;;50.70;28.70;;;-0.10;99.90;;;;;;5093999;27;20058;-60
2022/01/11 00:08:13;;;;;;;45.08;27.50;;;-0.10;99.90;;;;;;5109653;27;20076;-59
2022/01/11 00:10:52;;;;;;;45.58;28.33;;;-0.10;99.90;;;;;;5103013;27;20055;-60
2022/01/11 00:13:19;;;;;;;51.83;27.00;;;-0.20;99.90;;;;;;5095850;27;20046;-58
2022/01/11 00:15:47;;;;;;;46.05;27.48;;;-0.20;99.90;;;;;;5095220;27;20152;-60
2022/01/11 00:18:13;;;;;;;40.40;26.55;;;-0.20;99.90;;;;;;5113625;27;20070;-59
2022/01/11 00:20:39;;;;;;;44.83;27.35;;;-0.20;99.90;;;;;;5109803;27;20047;-60
2022/01/11 00:25:42;;;;;;;43.65;26.95;;;-0.20;99.90;;;;;;5095546;27;20529;-59
2022/01/11 00:28:09;;;;;;;47.97;26.65;;;-0.20;99.90;;;;;;5101104;27;20042;-60
2022/01/11 00:30:38;;;;;;;45.40;26.88;;;-0.20;99.90;;;;;;5117435;27;20051;-60
2022/01/11 00:33:09;;;;;;;42.60;26.23;;;-0.20;99.90;;;;;;5117810;27;20073;-60
2022/01/11 00:35:40;;;;;;;46.70;28.23;;;-0.20;99.90;;;;;;5098431;27;20043;-59
2022/01/11 00:38:16;;;;;;;43.05;25.13;;;-0.20;99.90;;;;;;5095538;27;20127;-60
2022/01/11 00:40:46;;;;;;;42.25;26.90;;;-0.20;99.90;;;;;;5118301;27;20031;-59
2022/01/11 00:43:13;;;;;;;41.60;25.88;;;-0.30;99.90;;;;;;5097755;27;20105;-60
2022/01/11 00:45:39;;;;;;;41.05;26.48;;;-0.30;99.90;;;;;;5096660;27;20089;-58
2022/01/11 00:48:05;;;;;;;42.10;26.45;;;-0.30;99.90;;;;;;5082176;27;20043;-59
2022/01/11 00:50:33;;;;;;;42.75;27.50;;;-0.20;99.90;;;;;;5094716;27;20051;-60
2022/01/11 00:53:00;;;;;;;46.65;27.40;;;-0.30;99.90;;;;;;5079015;27;20036;-60
2022/01/11 00:55:25;;;;;;;44.83;27.63;;;-0.20;99.90;;;;;;5117770;27;20458;-60
2022/01/11 00:57:51;;;;;;;47.42;27.92;;;-0.30;99.90;;;;;;5099560;27;20157;-60
2022/01/11 01:00:17;;;;;;;47.63;28.30;;;-0.30;99.90;;;;;;5113966;27;20055;-59
2022/01/11 01:02:43;;;;;;;43.33;27.30;;;-0.20;99.90;;;;;;5096611;27;20049;-59
2022/01/11 01:05:10;;;;;;;42.17;27.55;;;-0.20;99.90;;;;;;5094561;27;20047;-60
2022/01/11 01:07:35;;;;;;;46.03;27.50;;;-0.30;99.90;;;;;;5117163;27;20062;-59
2022/01/11 01:10:13;;;;;;;47.05;27.23;;;-0.30;99.90;;;;;;5110660;27;20074;-59
2022/01/11 01:12:39;;;;;;;46.88;27.15;;;-0.30;99.90;;;;;;5113207;27;20035;-60
2022/01/11 01:15:06;;;;;;;45.33;26.77;;;-0.30;99.90;;;;;;5099655;27;22346;-59
2022/01/11 01:17:32;;;;;;;43.75;26.17;;;-0.30;99.90;;;;;;5114560;27;20045;-59
2022/01/11 01:19:57;;;;;;;46.25;28.27;;;-0.30;99.90;;;;;;5113763;27;20039;-59
2022/01/11 01:22:23;;;;;;;45.50;28.48;;;-0.30;99.90;;;;;;5113552;27;20119;-59
2022/01/11 01:24:49;;;;;;;43.65;27.10;;;-0.30;99.90;;;;;;5095810;27;20385;-60
2022/01/11 01:27:15;;;;;;;47.65;28.30;;;-0.30;99.90;;;;;;5095685;27;20679;-59
2022/01/11 01:29:41;;;;;;;43.50;26.48;;;-0.30;99.90;;;;;;5095803;27;20043;-60
2022/01/11 01:32:08;;;;;;;49.60;28.35;;;-0.30;99.90;;;;;;5092341;27;20042;-59
2022/01/11 01:34:34;;;;;;;46.83;27.90;;;-0.30;99.90;;;;;;5114822;27;20043;-60
2022/01/11 01:37:00;;;;;;;51.22;29.65;;;-0.40;99.90;;;;;;5096691;27;20113;-60
2022/01/11 01:39:26;;;;;;;48.97;27.13;;;-0.40;99.90;;;;;;5115924;27;20065;-59
2022/01/11 01:41:53;;;;;;;47.05;28.52;;;-0.40;99.90;;;;;;5094030;27;20038;-60
2022/01/11 01:44:19;;;;;;;52.50;28.10;;;-0.40;99.90;;;;;;5081299;27;20054;-60
2022/01/11 01:46:45;;;;;;;48.70;26.83;;;-0.40;99.90;;;;;;5115408;27;20043;-60
2022/01/11 01:49:16;;;;;;;46.15;27.40;;;-0.40;99.90;;;;;;5092644;27;20070;-60
2022/01/11 01:51:43;;;;;;;45.13;26.13;;;-0.40;99.90;;;;;;5095745;27;20435;-60
2022/01/11 01:54:09;;;;;;;45.00;26.67;;;-0.40;99.90;;;;;;5111539;27;20039;-60
2022/01/11 01:56:35;;;;;;;52.95;28.38;;;-0.40;99.90;;;;;;5116391;27;20151;-59
2022/01/11 01:59:01;;;;;;;47.78;29.17;;;-0.50;99.90;;;;;;5110752;27;20042;-60
2022/01/11 02:01:27;;;;;;;46.08;28.38;;;-0.50;99.90;;;;;;5112946;27;20085;-60
2022/01/11 02:03:53;;;;;;;45.08;27.92;;;-0.50;99.90;;;;;;5098637;27;20059;-59
2022/01/11 02:06:20;;;;;;;50.03;28.70;;;-0.50;99.90;;;;;;5115103;27;20039;-60
2022/01/11 02:08:48;;;;;;;55.08;30.38;;;-0.50;99.90;;;;;;5110613;27;20049;-60
2022/01/11 02:11:20;;;;;;;49.67;27.60;;;-0.50;99.90;;;;;;5112975;27;20503;-60
2022/01/11 02:13:47;;;;;;;53.00;30.10;;;-0.40;99.90;;;;;;5097341;27;20103;-60
2022/01/11 02:16:13;;;;;;;56.13;29.90;;;-0.40;99.90;;;;;;5115331;27;20123;-60
2022/01/11 02:18:44;;;;;;;56.33;28.83;;;-0.40;99.90;;;;;;5094273;27;20043;-60
2022/01/11 02:21:11;;;;;;;55.60;29.73;;;-0.40;99.90;;;;;;5094836;27;20458;-60
2022/01/11 02:23:37;;;;;;;54.60;30.23;;;-0.40;99.90;;;;;;5111259;27;20535;-61
2022/01/11 02:26:03;;;;;;;57.03;29.92;;;-0.30;99.90;;;;;;5112266;27;20074;-60
2022/01/11 02:28:29;;;;;;;60.78;30.67;;;-0.30;99.90;;;;;;5096364;27;20529;-60
2022/01/11 02:30:57;;;;;;;56.60;30.30;;;-0.30;99.90;;;;;;5093999;27;20047;-59
2022/01/11 02:33:53;;;;;;;58.30;31.27;;;-0.30;99.90;;;;;;5113619;27;20061;-60
2022/01/11 02:36:23;;;;;;;59.20;29.85;;;-0.20;99.90;;;;;;5110133;27;20048;-59
2022/01/11 02:38:52;;;;;;;62.38;30.77;;;-0.20;99.90;;;;;;5112409;27;20110;-60
2022/01/11 02:41:20;;;;;;;63.33;31.95;;;-0.20;99.90;;;;;;5111262;27;20066;-60
2022/01/11 02:43:47;;;;;;;64.50;31.58;;;-0.20;99.90;;;;;;5091205;27;20051;-59
2022/01/11 02:46:14;;;;;;;63.72;31.25;;;-0.20;99.90;;;;;;5092504;27;20125;-60
2022/01/11 02:48:40;;;;;;;70.72;32.38;;;-0.10;99.90;;;;;;5097005;27;20043;-60
2022/01/11 02:51:07;;;;;;;67.85;32.30;;;-0.10;99.90;;;;;;5108647;27;20134;-60
2022/01/11 02:53:42;;;;;;;72.28;32.10;;;-0.10;99.90;;;;;;5113579;27;20079;-59
2022/01/11 02:56:08;;;;;;;71.95;32.28;;;-0.10;99.90;;;;;;5095643;27;20058;-60
2022/01/11 02:58:34;;;;;;;65.07;31.48;;;0.00;99.90;;;;;;5114233;27;20042;-60
2022/01/11 03:01:00;;;;;;;67.43;31.85;;;0.00;99.90;;;;;;5110368;27;20410;-60
2022/01/11 03:03:26;;;;;;;77.32;32.92;;;0.00;99.90;;;;;;5114210;27;20046;-60
2022/01/11 03:05:54;;;;;;;71.28;32.25;;;0.00;99.90;;;;;;5113994;27;20050;-58
2022/01/11 03:08:22;;;;;;;77.40;33.00;;;0.00;99.90;;;;;;5109616;27;21568;-60
2022/01/11 03:10:49;;;;;;;68.45;32.92;;;0.00;99.90;;;;;;5110771;27;20051;-60
2022/01/11 03:13:18;;;;;;;72.97;34.15;;;0.00;99.90;;;;;;5115059;27;20065;-60
2022/01/11 03:15:46;;;;;;;73.03;33.65;;;0.00;99.90;;;;;;5115918;27;20489;-59
2022/01/11 03:18:13;;;;;;;81.85;35.60;;;0.10;99.90;;;;;;5094408;27;20223;-60
2022/01/11 03:20:40;;;;;;;75.00;35.80;;;0.10;99.90;;;;;;5096101;27;20064;-60
2022/01/11 03:23:07;;;;;;;79.18;36.25;;;0.10;99.90;;;;;;5091935;27;20078;-60
2022/01/11 03:25:34;;;;;;;85.38;35.45;;;0.10;99.90;;;;;;5079677;27;20046;-60
2022/01/11 03:28:00;;;;;;;87.35;36.67;;;0.10;99.90;;;;;;5109988;27;20406;-60
2022/01/11 03:30:26;;;;;;;84.47;36.97;;;0.10;99.90;;;;;;5107766;27;20044;-60
2022/01/11 03:32:52;;;;;;;92.50;38.50;;;0.20;99.90;;;;;;5108578;27;20032;-60
2022/01/11 03:35:19;;;;;;;87.07;39.47;;;0.20;99.90;;;;;;5111620;27;20130;-59
2022/01/11 03:37:46;;;;;;;98.57;39.80;;;0.20;99.90;;;;;;5095721;27;20059;-60
2022/01/11 03:40:16;;;;;;;89.05;37.25;;;0.20;99.90;;;;;;5113815;27;20045;-60
2022/01/11 03:42:42;;;;;;;88.03;35.83;;;0.20;99.90;;;;;;5092553;27;20108;-60
2022/01/11 03:45:10;;;;;;;83.20;37.05;;;0.20;99.90;;;;;;5109797;27;20146;-59
2022/01/11 03:47:36;;;;;;;85.82;37.25;;;0.20;99.90;;;;;;5074101;27;20111;-59
2022/01/11 03:50:04;;;;;;;89.65;39.03;;;0.20;99.90;;;;;;5092098;27;20077;-59
2022/01/11 03:52:29;;;;;;;84.13;36.20;;;0.20;99.90;;;;;;5110220;27;20039;-59
2022/01/11 03:57:23;;;;;;;85.35;36.65;;;0.20;99.90;;;;;;5095432;27;20039;-58
2022/01/11 03:59:49;;;;;;;83.70;37.78;;;0.20;99.90;;;;;;5108397;27;20078;-60
2022/01/11 04:02:15;;;;;;;79.00;35.88;;;0.20;99.90;;;;;;5113680;27;20133;-58
2022/01/11 04:04:41;;;;;;;83.25;35.67;;;0.20;99.90;;;;;;5099761;27;20566;-59
2022/01/11 04:07:07;;;;;;;77.97;34.72;;;0.20;99.90;;;;;;5098852;27;20077;-60
2022/01/11 04:09:33;;;;;;;79.28;36.03;;;0.20;99.90;;;;;;5119109;27;20104;-60
2022/01/11 04:11:59;;;;;;;88.78;35.97;;;0.20;99.90;;;;;;5097525;27;20492;-59
2022/01/11 04:14:25;;;;;;;82.25;35.40;;;0.20;99.90;;;;;;5059536;27;20055;-59
2022/01/11 04:16:52;;;;;;;83.18;35.88;;;0.20;99.90;;;;;;5101124;27;20035;-60
2022/01/11 04:19:20;;;;;;;86.43;36.13;;;0.20;99.90;;;;;;5089558;27;20127;-60
2022/01/11 04:21:47;;;;;;;81.10;35.20;;;0.20;99.90;;;;;;5115213;27;20046;-59
2022/01/11 04:24:13;;;;;;;83.43;36.03;;;0.20;99.90;;;;;;5115477;27;20059;-60
2022/01/11 04:26:39;;;;;;;82.68;35.60;;;0.20;99.90;;;;;;5118274;27;20047;-59
2022/01/11 04:29:05;;;;;;;90.85;36.53;;;0.10;99.90;;;;;;5097233;27;20043;-59
2022/01/11 04:31:32;;;;;;;87.75;35.15;;;0.20;99.90;;;;;;5094740;27;20294;-60
2022/01/11 04:33:57;;;;;;;80.00;34.10;;;0.20;99.90;;;;;;5093508;27;20138;-60
2022/01/11 04:36:23;;;;;;;87.32;35.65;;;0.20;99.90;;;;;;5077722;27;20043;-60
2022/01/11 04:38:49;;;;;;;88.60;35.00;;;0.20;99.90;;;;;;5114486;27;20513;-60
2022/01/11 04:41:15;;;;;;;84.63;35.88;;;0.30;99.90;;;;;;5110478;27;20071;-60
2022/01/11 04:43:41;;;;;;;88.38;36.17;;;0.30;99.90;;;;;;5112363;27;20175;-59
2022/01/11 04:46:07;;;;;;;82.75;35.90;;;0.20;99.90;;;;;;5076766;27;20496;-60
2022/01/11 04:48:33;;;;;;;72.70;34.22;;;0.30;99.90;;;;;;5094242;27;20039;-60
2022/01/11 04:51:04;;;;;;;79.90;35.53;;;0.30;99.90;;;;;;5093381;27;20155;-60
2022/01/11 04:53:30;;;;;;;83.45;34.28;;;0.30;99.90;;;;;;5115735;27;20100;-60
2022/01/11 04:55:56;;;;;;;75.22;33.33;;;0.30;99.90;;;;;;5114832;27;20038;-60
2022/01/11 04:58:23;;;;;;;81.75;35.08;;;0.30;99.90;;;;;;5118521;27;20039;-59
2022/01/11 05:00:50;;;;;;;79.43;34.33;;;0.30;99.90;;;;;;5095143;27;20055;-59
2022/01/11 05:03:15;;;;;;;86.63;34.00;;;0.30;99.90;;;;;;5111987;27;20415;-60
2022/01/11 05:05:41;;;;;;;72.45;32.65;;;0.30;99.90;;;;;;5099081;27;20053;-60
2022/01/11 05:08:07;;;;;;;78.90;33.55;;;0.30;99.90;;;;;;5081464;27;20053;-60
2022/01/11 05:10:33;;;;;;;77.72;32.58;;;0.30;99.90;;;;;;5063926;27;20046;-61
2022/01/11 05:12:59;;;;;;;71.00;31.95;;;0.30;99.90;;;;;;5112895;27;20039;-58
2022/01/11 05:15:25;;;;;;;77.07;30.83;;;0.30;99.90;;;;;;5116744;27;20051;-60
2022/01/11 05:17:52;;;;;;;70.55;30.25;;;0.30;99.90;;;;;;5118099;27;20043;-61
2022/01/11 05:20:19;;;;;;;81.93;33.90;;;0.30;99.90;;;;;;5110496;27;20051;-59
2022/01/11 05:22:45;;;;;;;71.97;32.53;;;0.40;99.90;;;;;;5076228;27;20426;-61
2022/01/11 05:25:14;;;;;;;63.50;30.58;;;0.40;99.90;;;;;;5071788;27;20505;-59
2022/01/11 05:27:41;;;;;;;75.00;33.05;;;0.40;99.90;;;;;;5113274;27;20065;-60
2022/01/11 05:30:10;;;;;;;73.95;33.13;;;0.30;99.90;;;;;;5106674;27;20074;-61
2022/01/11 05:32:35;;;;;;;75.57;32.17;;;0.40;99.90;;;;;;5113716;27;20046;-59
2022/01/11 05:35:03;;;;;;;69.57;31.73;;;0.30;99.90;;;;;;5092276;27;20391;-60
2022/01/11 05:37:29;;;;;;;71.78;32.20;;;0.40;99.90;;;;;;5099906;27;20060;-60
2022/01/11 05:39:55;;;;;;;72.68;31.17;;;0.40;99.90;;;;;;5108139;27;20050;-60
2022/01/11 05:42:22;;;;;;;62.53;30.70;;;0.30;99.90;;;;;;5107886;27;21158;-61
2022/01/11 05:44:48;;;;;;;68.38;31.48;;;0.30;99.90;;;;;;5114116;27;20131;-61
2022/01/11 05:47:13;;;;;;;66.88;31.02;;;0.40;99.90;;;;;;5100205;27;20439;-59
2022/01/11 05:49:39;;;;;;;67.07;29.92;;;0.40;99.90;;;;;;5093164;27;20055;-59
2022/01/11 05:52:05;;;;;;;67.60;31.05;;;0.30;99.90;;;;;;5110185;27;20112;-60
2022/01/11 05:54:31;;;;;;;65.72;30.58;;;0.40;99.90;;;;;;5095386;27;20170;-60
2022/01/11 05:56:57;;;;;;;61.20;28.77;;;0.30;99.90;;;;;;5089061;27;20058;-59
2022/01/11 05:59:22;;;;;;;73.15;31.83;;;0.30;99.90;;;;;;5092102;27;20051;-60
2022/01/11 06:01:48;;;;;;;62.65;29.63;;;0.30;99.90;;;;;;5115288;27;20108;-60
2022/01/11 06:04:14;;;;;;;63.58;29.27;;;0.30;99.90;;;;;;5113483;27;20039;-60
2022/01/11 06:06:40;;;;;;;62.78;30.15;;;0.30;99.90;;;;;;5095112;27;20054;-60
2022/01/11 06:09:06;;;;;;;64.28;29.38;;;0.30;99.90;;;;;;5114438;27;20119;-60
2022/01/11 06:11:32;;;;;;;63.75;29.75;;;0.30;99.90;;;;;;5094406;27;20043;-59
2022/01/11 06:13:58;;;;;;;66.88;30.48;;;0.20;99.90;;;;;;5096811;27;20085;-60
2022/01/11 06:16:23;;;;;;;62.33;30.00;;;0.20;99.90;;;;;;5096492;27;20121;-60
2022/01/11 06:18:50;;;;;;;62.83;30.70;;;0.20;99.90;;;;;;5110872;27;20058;-60
2022/01/11 06:21:16;;;;;;;70.07;30.23;;;0.20;99.90;;;;;;5109458;27;20131;-61
2022/01/11 06:23:42;;;;;;;59.45;29.92;;;0.20;99.90;;;;;;5116342;27;20075;-60
2022/01/11 06:26:08;;;;;;;60.55;29.05;;;0.20;99.90;;;;;;5098971;27;20035;-60
2022/01/11 06:28:34;;;;;;;67.90;30.40;;;0.20;99.90;;;;;;5087343;27;20047;-60
2022/01/11 06:31:00;;;;;;;65.10;29.80;;;0.20;99.90;;;;;;5070045;27;20051;-60
2022/01/11 06:33:26;;;;;;;60.90;28.80;;;0.20;99.90;;;;;;5109932;27;20481;-59
2022/01/11 06:35:51;;;;;;;64.53;30.13;;;0.20;99.90;;;;;;5090763;27;20374;-59
2022/01/11 06:38:17;;;;;;;61.13;29.23;;;0.20;99.90;;;;;;5105769;27;20897;-60
2022/01/11 06:40:43;;;;;;;58.83;28.42;;;0.20;99.90;;;;;;5091899;27;20478;-58
2022/01/11 06:43:09;;;;;;;60.20;29.67;;;0.20;99.90;;;;;;5089962;27;20580;-59
2022/01/11 06:45:35;;;;;;;54.70;28.42;;;0.20;99.90;;;;;;5100222;27;20071;-60
2022/01/11 06:48:01;;;;;;;59.03;27.77;;;0.20;99.90;;;;;;5105898;27;20134;-59
2022/01/11 06:50:28;;;;;;;56.00;28.30;;;0.20;99.90;;;;;;5114379;27;20118;-59
2022/01/11 06:52:54;;;;;;;58.60;28.30;;;0.20;99.90;;;;;;5093197;27;20130;-59
2022/01/11 06:55:20;;;;;;;55.88;28.55;;;0.20;99.90;;;;;;5109266;27;20281;-60
2022/01/11 06:57:48;;;;;;;58.50;28.33;;;0.20;99.90;;;;;;5097947;27;20519;-60
2022/01/11 07:00:14;;;;;;;53.25;27.48;;;0.20;99.90;;;;;;5118155;27;20039;-59
2022/01/11 07:02:40;;;;;;;63.15;30.23;;;0.20;99.90;;;;;;5118192;27;20490;-60
2022/01/11 07:05:07;;;;;;;58.20;28.33;;;0.20;99.90;;;;;;5106240;27;20047;-59
2022/01/11 07:07:33;;;;;;;57.45;27.38;;;0.20;99.90;;;;;;5094534;27;20553;-60
2022/01/11 07:09:59;;;;;;;57.40;29.15;;;0.20;99.90;;;;;;5109492;27;20046;-59
2022/01/11 07:12:25;;;;;;;59.65;29.55;;;0.20;99.90;;;;;;5116166;27;20058;-58
2022/01/11 07:14:51;;;;;;;60.17;28.77;;;0.10;99.90;;;;;;5106639;27;20054;-59
2022/01/11 07:17:17;;;;;;;53.53;27.77;;;0.20;99.90;;;;;;5114130;27;20664;-59
2022/01/11 07:19:42;;;;;;;57.55;27.55;;;0.10;99.90;;;;;;5117251;27;20047;-60
2022/01/11 07:22:09;;;;;;;58.92;27.73;;;0.20;99.90;;;;;;5105655;27;20080;-59
2022/01/11 07:24:35;;;;;;;56.15;27.75;;;0.10;99.90;;;;;;5117474;27;20047;-58
2022/01/11 07:27:01;;;;;;;53.67;27.15;;;0.10;99.90;;;;;;5095598;27;20333;-59
2022/01/11 07:29:27;;;;;;;56.78;28.58;;;0.10;99.90;;;;;;5093098;27;20078;-58
2022/01/11 07:31:52;;;;;;;54.00;26.73;;;0.10;99.90;;;;;;5118565;27;20042;-58
2022/01/11 07:34:18;;;;;;;49.85;27.23;;;0.10;99.90;;;;;;5115036;27;20093;-59
2022/01/11 07:36:44;;;;;;;55.53;27.23;;;0.10;99.90;;;;;;5116619;27;20047;-59
2022/01/11 07:39:14;;;;;;;55.63;28.05;;;0.10;99.90;;;;;;5078547;28;20552;-59
2022/01/11 07:41:41;;;;;;;56.67;27.30;;;0.10;99.90;;;;;;5092391;27;20498;-58
2022/01/11 07:44:07;;;;;;;51.47;27.13;;;0.10;99.90;;;;;;5097018;27;20097;-59
2022/01/11 07:46:33;;;;;;;61.20;27.35;;;0.10;99.90;;;;;;5095381;27;20082;-59
2022/01/11 07:48:59;;;;;;;48.47;25.45;;;0.10;99.90;;;;;;5097696;27;20042;-58
2022/01/11 07:51:26;;;;;;;56.53;27.23;;;0.10;99.90;;;;;;5103115;27;20040;-59
2022/01/11 07:53:52;;;;;;;54.17;26.50;;;0.10;99.90;;;;;;5093821;27;20046;-58
2022/01/11 07:56:19;;;;;;;54.53;27.20;;;0.10;99.90;;;;;;5096657;27;20040;-59
2022/01/11 07:58:46;;;;;;;52.08;26.08;;;0.10;99.90;;;;;;5090168;27;20635;-58
2022/01/11 08:01:12;;;;;;;51.70;26.23;;;0.10;99.90;;;;;;5093057;27;20470;-58
2022/01/11 08:03:38;;;;;;;53.72;26.33;;;0.10;99.90;;;;;;5097472;27;20464;-58
2022/01/11 08:06:04;;;;;;;51.53;26.00;;;0.10;99.90;;;;;;5095653;27;20123;-59
2022/01/11 08:08:30;;;;;;;53.00;26.80;;;0.10;99.90;;;;;;5096054;27;20051;-55
2022/01/11 08:10:56;;;;;;;54.13;27.13;;;0.10;99.90;;;;;;5093118;27;20043;-57
2022/01/11 08:13:23;;;;;;;50.95;25.38;;;0.10;99.90;;;;;;5092792;27;20413;-59
2022/01/11 08:15:49;;;;;;;56.72;26.77;;;0.10;99.90;;;;;;5093865;27;20437;-58
2022/01/11 08:18:15;;;;;;;60.67;26.92;;;0.10;99.90;;;;;;5092724;27;20128;-59
2022/01/11 08:20:43;;;;;;;51.35;26.30;;;0.10;99.90;;;;;;5075071;27;20056;-59
2022/01/11 08:23:10;;;;;;;54.78;25.60;;;0.10;99.90;;;;;;5095449;27;20056;-55
2022/01/11 08:25:36;;;;;;;52.55;26.15;;;0.20;99.90;;;;;;5094315;27;20048;-58
2022/01/11 08:28:03;;;;;;;55.47;26.50;;;0.20;99.90;;;;;;5092955;27;20043;-59
2022/01/11 08:30:29;;;;;;;53.92;25.88;;;0.20;99.90;;;;;;5091935;27;20072;-57
2022/01/11 08:32:55;;;;;;;55.20;26.40;;;0.20;99.90;;;;;;5090449;27;20087;-59
2022/01/11 08:35:21;;;;;;;53.60;25.67;;;0.20;99.90;;;;;;5093429;27;20044;-59
2022/01/11 08:37:47;;;;;;;51.35;25.70;;;0.20;99.90;;;;;;5101594;27;20094;-58
2022/01/11 08:40:14;;;;;;;50.75;24.85;;;0.20;99.90;;;;;;5111136;27;20113;-57
2022/01/11 08:42:40;;;;;;;52.00;25.77;;;0.20;99.90;;;;;;5114624;27;20034;-59
2022/01/11 08:45:07;;;;;;;55.72;26.50;;;0.20;99.90;;;;;;5112882;27;20163;-59
2022/01/11 08:47:34;;;;;;;51.78;26.35;;;0.20;99.90;;;;;;5094870;27;20635;-59
2022/01/11 08:50:03;;;;;;;53.47;25.33;;;0.20;99.90;;;;;;5119361;27;20501;-57
2022/01/11 08:52:29;;;;;;;50.13;24.80;;;0.20;99.90;;;;;;5089576;27;20043;-58
2022/01/11 08:54:56;;;;;;;50.65;24.88;;;0.20;99.90;;;;;;5117009;27;20054;-58
2022/01/11 08:57:22;;;;;;;47.28;23.85;;;0.20;99.90;;;;;;5114359;27;20039;-59
2022/01/11 08:59:49;;;;;;;50.65;24.45;;;0.20;99.90;;;;;;5113319;27;20065;-59
2022/01/11 09:02:15;;;;;;;44.22;23.77;;;0.20;99.90;;;;;;5113895;27;20047;-57
2022/01/11 09:04:42;;;;;;;45.78;23.27;;;0.20;99.90;;;;;;5090004;27;20055;-58
2022/01/11 09:07:08;;;;;;;49.35;24.05;;;0.20;99.90;;;;;;5114778;27;20490;-59
2022/01/11 09:09:34;;;;;;;49.15;24.80;;;0.20;99.90;;;;;;5094873;27;20482;-58
2022/01/11 09:12:03;;;;;;;47.13;23.67;;;0.20;99.90;;;;;;5095184;27;20151;-59
2022/01/11 09:14:30;;;;;;;42.72;22.15;;;0.20;99.90;;;;;;5115525;27;20495;-59
2022/01/11 09:16:57;;;;;;;44.38;22.83;;;0.20;99.90;;;;;;5113548;27;20039;-58
2022/01/11 09:19:23;;;;;;;46.05;23.20;;;0.20;99.90;;;;;;5098029;27;20050;-59
2022/01/11 09:21:50;;;;;;;43.33;22.88;;;0.20;99.90;;;;;;5111767;27;20469;-59
2022/01/11 09:24:19;;;;;;;47.75;23.23;;;0.20;99.90;;;;;;5097015;27;20091;-58
2022/01/11 09:26:48;;;;;;;41.78;22.50;;;0.20;99.90;;;;;;5110873;27;20074;-59
2022/01/11 09:29:15;;;;;;;37.88;19.95;;;0.20;99.90;;;;;;5101724;27;20068;-57
2022/01/11 09:31:42;;;;;;;41.75;21.88;;;0.20;99.90;;;;;;5109363;27;20124;-56
2022/01/11 09:34:08;;;;;;;40.78;21.30;;;0.20;99.90;;;;;;5116649;27;20050;-57
2022/01/11 09:36:34;;;;;;;36.47;21.50;;;0.20;99.90;;;;;;5118022;27;20761;-59
2022/01/11 09:39:00;;;;;;;38.25;21.13;;;0.20;99.90;;;;;;5095279;27;20143;-59
2022/01/11 09:41:26;;;;;;;38.00;20.02;;;0.20;99.90;;;;;;5095008;27;20051;-57
2022/01/11 09:43:52;;;;;;;36.03;20.85;;;0.20;99.90;;;;;;5094369;27;20040;-58
2022/01/11 09:46:17;;;;;;;36.92;20.58;;;0.20;99.90;;;;;;5090920;27;21477;-59
2022/01/11 09:48:45;;;;;;;36.85;21.10;;;0.20;99.90;;;;;;5088351;27;20047;-58
2022/01/11 09:51:11;;;;;;;39.63;21.13;;;0.20;99.90;;;;;;5092697;27;20040;-59
2022/01/11 09:53:37;;;;;;;35.90;21.40;;;0.20;99.90;;;;;;5092379;27;20139;-59
2022/01/11 09:56:08;;;;;;;35.45;20.63;;;0.20;99.90;;;;;;5095893;27;20092;-57
2022/01/11 09:58:38;;;;;;;35.20;18.75;;;0.20;99.90;;;;;;5095979;27;20040;-58
2022/01/11 10:01:04;;;;;;;34.85;19.00;;;0.30;99.90;;;;;;5091772;27;20204;-56
2022/01/11 10:03:30;;;;;;;34.58;19.13;;;0.20;99.90;;;;;;5093682;27;20414;-59
2022/01/11 10:05:56;;;;;;;34.55;19.27;;;0.30;99.90;;;;;;5094082;27;20035;-59
2022/01/11 10:08:28;;;;;;;33.17;18.20;;;0.30;99.90;;;;;;5091353;27;20469;-58
2022/01/11 10:10:57;;;;;;;38.70;19.50;;;0.30;99.90;;;;;;5089090;27;20090;-58
2022/01/11 10:13:40;;;;;;;38.90;19.90;;;0.20;99.90;;;;;;5093120;27;20040;-59
2022/01/11 10:16:27;;;;;;;36.92;19.10;;;0.30;99.90;;;;;;5096074;27;20043;-59
2022/01/11 10:18:54;;;;;;;30.75;17.83;;;0.30;99.90;;;;;;5077180;27;20139;-58
2022/01/11 10:21:37;;;;;;;34.67;18.77;;;0.30;99.90;;;;;;5090630;27;20043;-59
2022/01/11 10:24:24;;;;;;;35.33;19.73;;;0.30;99.90;;;;;;5074791;27;20474;-57
2022/01/11 10:26:51;;;;;;;34.92;19.23;;;0.30;99.90;;;;;;5094432;27;20580;-58
2022/01/11 10:29:36;;;;;;;37.67;20.02;;;0.30;99.90;;;;;;5067286;27;20051;-58
2022/01/11 10:32:13;;;;;;;37.03;20.23;;;0.30;99.90;;;;;;5082581;27;20116;-57
2022/01/11 10:34:39;;;;;;;36.22;19.80;;;0.30;99.90;;;;;;5090292;27;20051;-59
2022/01/11 10:37:06;;;;;;;36.80;19.48;;;0.30;99.90;;;;;;5096354;27;20574;-57
2022/01/11 10:39:34;;;;;;;39.65;20.25;;;0.30;99.90;;;;;;5085064;27;20047;-59
2022/01/11 10:42:01;;;;;;;38.05;20.13;;;0.30;99.90;;;;;;5088825;27;20063;-59
2022/01/11 10:44:42;;;;;;;37.40;20.63;;;0.30;99.90;;;;;;5092424;27;20051;-58
2022/01/11 10:47:08;;;;;;;37.22;20.48;;;0.40;99.90;;;;;;5114460;27;20448;-58
2022/01/11 10:49:36;;;;;;;39.60;20.65;;;0.40;99.90;;;;;;5093827;27;20092;-59
2022/01/11 10:52:16;;;;;;;38.65;20.38;;;0.40;99.90;;;;;;5082630;27;20070;-59
2022/01/11 10:54:43;;;;;;;39.33;20.83;;;0.50;99.90;;;;;;5095498;27;20121;-59
2022/01/11 10:57:24;;;;;;;38.83;21.27;;;0.50;99.90;;;;;;5112645;27;20044;-58
2022/01/11 11:00:11;;;;;;;40.20;21.70;;;0.60;99.90;;;;;;5090902;27;20129;-57
2022/01/11 11:02:37;;;;;;;45.10;21.55;;;0.70;99.90;;;;;;5111704;27;20095;-56
2022/01/11 11:05:53;;;;;;;44.03;22.73;;;0.90;99.90;;;;;;5094325;27;20075;-59
2022/01/11 11:08:23;;;;;;;33.55;20.40;;;1.10;99.90;;;;;;5108478;27;20070;-58
2022/01/11 11:10:58;;;;;;;36.78;19.88;;;1.30;99.90;;;;;;5106348;27;20062;-59
2022/01/11 11:13:31;;;;;;;34.10;20.40;;;1.40;99.90;;;;;;5113190;27;20043;-57
2022/01/11 11:16:08;;;;;;;37.97;20.25;;;1.50;99.90;;;;;;5110039;27;20042;-59
2022/01/11 11:18:38;;;;;;;35.13;20.20;;;1.70;99.90;;;;;;5117522;27;20095;-58
2022/01/11 11:21:21;;;;;;;35.90;20.95;;;1.80;99.90;;;;;;5107742;27;20524;-59
2022/01/11 11:23:53;;;;;;;41.00;20.85;;;1.90;99.90;;;;;;5115267;27;20049;-58
2022/01/11 11:26:21;;;;;;;40.83;20.85;;;2.00;99.90;;;;;;5094983;27;20079;-60
2022/01/11 11:28:48;;;;;;;38.20;20.75;;;2.10;99.90;;;;;;5093179;27;20058;-59
2022/01/11 11:31:14;;;;;;;35.72;19.70;;;2.20;99.90;;;;;;5107873;27;20074;-59
2022/01/11 11:33:42;;;;;;;38.53;20.67;;;2.20;99.90;;;;;;5116865;27;20043;-56
2022/01/11 11:36:11;;;;;;;35.25;19.85;;;2.20;99.90;;;;;;5115889;27;20047;-58
2022/01/11 11:38:46;;;;;;;37.88;20.65;;;2.30;99.90;;;;;;5115047;27;20056;-59
2022/01/11 11:41:14;;;;;;;38.00;20.75;;;2.30;99.90;;;;;;5106271;27;20050;-59
2022/01/11 11:43:39;;;;;;;36.80;20.38;;;2.30;99.90;;;;;;5114856;27;20547;-58
2022/01/11 11:46:05;;;;;;;35.85;20.13;;;2.30;99.90;;;;;;5112896;27;20155;-59
2022/01/11 11:48:31;;;;;;;35.92;19.60;;;2.20;99.90;;;;;;5073619;27;20132;-59
2022/01/11 11:51:01;;;;;;;34.42;20.65;;;2.20;99.90;;;;;;5112504;27;20047;-60
2022/01/11 11:53:34;;;;;;;39.03;20.88;;;2.20;99.90;;;;;;5092724;27;20458;-59
2022/01/11 11:56:20;;;;;;;37.22;21.50;;;2.30;99.90;;;;;;5095138;27;20545;-59
2022/01/11 11:58:55;;;;;;;34.30;19.23;;;2.30;99.90;;;;;;5115553;27;20393;-57
2022/01/11 12:01:30;;;;;;;36.50;20.27;;;2.30;99.90;;;;;;5112466;27;20047;-59
2022/01/11 12:03:56;;;;;;;37.33;20.35;;;2.30;99.90;;;;;;5113540;27;20118;-60
2022/01/11 12:06:27;;;;;;;40.65;21.67;;;2.30;99.90;;;;;;5115002;27;20038;-57
2022/01/11 12:09:12;;;;;;;31.95;20.13;;;2.30;99.90;;;;;;5117250;27;20047;-57
2022/01/11 12:11:46;;;;;;;34.35;20.35;;;2.30;99.90;;;;;;5088561;27;20046;-58
2022/01/11 12:14:35;;;;;;;39.17;21.15;;;2.30;99.90;;;;;;5117571;27;20195;-59
2022/01/11 12:17:18;;;;;;;37.03;21.02;;;2.30;99.90;;;;;;5117020;27;20469;-59
2022/01/11 12:19:53;;;;;;;35.60;19.58;;;2.30;99.90;;;;;;5114149;27;20513;-58
2022/01/11 12:22:22;;;;;;;34.35;19.83;;;2.30;99.90;;;;;;5092017;27;20043;-59
2022/01/11 12:24:49;;;;;;;35.10;20.55;;;2.30;99.90;;;;;;5112645;27;20180;-57
2022/01/11 12:27:19;;;;;;;35.35;20.48;;;2.30;99.90;;;;;;5098144;27;20050;-58
2022/01/11 12:30:06;;;;;;;37.80;20.27;;;2.30;99.90;;;;;;5113396;27;20047;-60
2022/01/11 12:32:35;;;;;;;35.90;20.15;;;2.30;99.90;;;;;;5098056;27;20046;-58
2022/01/11 12:35:01;;;;;;;37.35;19.95;;;2.30;99.90;;;;;;5114075;27;20047;-60
2022/01/11 12:37:33;;;;;;;36.78;20.75;;;2.40;99.90;;;;;;5116358;27;20047;-59
2022/01/11 12:40:20;;;;;;;36.63;21.63;;;2.40;99.90;;;;;;5113522;27;20173;-57
2022/01/11 12:42:54;;;;;;;32.88;18.98;;;2.40;99.90;;;;;;5109947;27;20177;-57
2022/01/11 12:46:01;;;;;;;34.47;18.88;;;2.40;99.90;;;;;;5096050;27;20121;-58